Latest Coastal Weather Observations for Strahan

IDT60701

Issued at 12:45 pm EDT Friday 28 November 2014 (issued every 10 minutes, with the page automatically refreshed every 10 minutes)

About coastal observations | Map of coastal stations | Coastal observations for TAS | Marine services | Other Formats
Station Details ID: 097072 Name: STRAHAN AERODROME Lat: -42.16 Lon: 145.29 Height: 21.0 m
Data from the previous 72 hours. | See also: Recent months at Strahan
Date/Time
EDT
Temp

°C
Wind Pressure Rain
since 9am
mm
Weather Cloud Vis
km
Sea
Height
m
Swell
Dir
 
Speed
knots
Gust
knots
hPa Trend Height
m
Period
s
Dir
28/12:30pm - SSW 10 15 1023.8 - 0.0 - Partly cloudy 10 - - - -
28/12:00pm - S 8 11 1024.0 - 0.0 - Cloudy 10 - - - -
28/11:30am - SE 7 11 1023.9 - 0.0 - Cloudy 10 - - - -
28/11:00am - SSE 7 11 1024.1 - 0.0 - Cloudy 10 - - - -
28/10:30am - SE 7 10 1024.4 - 0.0 - Cloudy 10 - - - -
28/10:00am - SE 8 10 1024.5 - 0.0 - Cloudy 10 - - - -
28/09:30am - ESE 7 11 1024.7 - 0.0 - Cloudy 10 - - - -
28/09:00am - SE 8 11 1024.8 - 0.0 - Cloudy 10 - - - -
28/08:30am - S 7 10 1024.8 - 0.0 - Cloudy 10 - - - -
28/08:00am - E 2 5 1024.8 - 0.0 - Cloudy 10 - - - -
28/07:30am - E 2 4 1024.7 - 0.0 - Cloudy 10 - - - -
28/07:08am - ENE 3 4 1024.6 - 0.0 - Cloudy 10 - - - -
28/07:00am - ENE 3 3 1024.5 - 0.0 - Cloudy 8 - - - -
28/06:47am - ENE 3 4 1024.4 - 0.0 - Cloudy 5 - - - -
28/06:30am - ENE 4 5 1024.3 - 0.0 - Cloudy 9 - - - -
28/06:00am - NE 1 3 1024.3 - 0.0 - Cloudy 10 - - - -
28/05:30am - NE 4 5 1024.1 - 0.0 - Cloudy 10 - - - -
28/05:00am - W 3 3 1024.1 - 0.0 - Partly cloudy 10 - - - -
28/04:30am - CALM 0 3 1024.2 - 0.0 - Cloudy 10 - - - -
28/04:00am - NNE 3 4 1024.1 - 0.0 - Cloudy 10 - - - -
28/03:30am - NE 1 4 1024.0 - 0.0 - Cloudy 10 - - - -
28/03:00am - ENE 5 5 1024.1 - 0.0 - Cloudy 10 - - - -
28/02:30am - NE 5 6 1024.2 - 0.0 - Cloudy 10 - - - -
28/02:00am - ENE 4 5 1024.3 - 0.0 - Cloudy 10 - - - -
28/01:30am - NE 1 4 1024.6 - 0.0 - Cloudy 10 - - - -
28/01:00am - CALM 0 0 1024.8 - 0.0 - Cloudy 10 - - - -
28/12:30am - CALM 0 0 1025.1 - 0.0 - Cloudy 10 - - - -
28/12:00am - CALM 0 0 1025.2 - 0.0 - Cloudy 10 - - - -
 
Date/Time
EDT
Temp

°C
Wind Pressure Rain
since 9am
mm
Weather Cloud Vis
km
Sea
Height
m
Swell
Dir
 
Speed
knots
Gust
knots
hPa Trend Height
m
Period
s
Dir
27/11:30pm - S 3 5 1025.3 - 0.0 - Partly cloudy 10 - - - -
27/11:00pm - S 6 9 1025.4 - 0.0 - - 10 - - - -
27/10:30pm - S 7 9 1025.5 - 0.0 - Partly cloudy 10 - - - -
27/10:00pm - S 7 9 1025.8 - 0.0 - - 10 - - - -
27/09:30pm - SSW 8 10 1025.7 - 0.0 - - 10 - - - -
27/09:00pm - SSW 7 9 1025.3 - 0.0 - - 10 - - - -
27/08:30pm - SSW 9 11 1025.0 - 0.0 - - 10 - - - -
27/08:00pm - SSW 11 15 1025.1 - 0.0 - - 10 - - - -
27/07:30pm - SW 11 14 1024.9 - 0.0 - - 10 - - - -
27/07:00pm - S 9 13 1024.9 - 0.0 - - 10 - - - -
27/06:30pm - SW 12 16 1025.1 - 0.0 - - 10 - - - -
27/06:00pm - SSW 13 17 1025.2 - 0.0 - - 10 - - - -
27/05:30pm - SSW 10 16 1025.2 - 0.0 - Partly cloudy 10 - - - -
27/05:00pm - SSW 9 15 1025.4 - 0.0 - Partly cloudy 10 - - - -
27/04:30pm - SW 11 15 1025.6 - 0.0 - Partly cloudy 10 - - - -
27/04:00pm - SW 11 17 1025.8 - 0.0 - Partly cloudy 10 - - - -
27/03:30pm - S 11 17 1026.2 - 0.0 - Partly cloudy 10 - - - -
27/03:00pm - SSW 12 18 1026.4 - 0.0 - Mostly cloudy 10 - - - -
27/02:30pm - SSW 10 17 1026.4 - 0.0 - Partly cloudy 10 - - - -
27/02:00pm - WSW 14 18 1026.5 - 0.0 - Partly cloudy 10 - - - -
27/01:30pm - SW 13 18 1026.6 - 0.0 - Partly cloudy 10 - - - -
27/01:00pm - S 8 11 1026.5 - 0.0 - Partly cloudy 10 - - - -
27/12:30pm - SW 12 17 1026.5 - 0.0 - Partly cloudy 10 - - - -
27/12:00pm - SSW 10 15 1026.5 - 0.0 - Cloudy 10 - - - -
27/11:30am - S 8 10 1026.6 - 0.0 - Partly cloudy 10 - - - -
27/11:00am - SSW 10 16 1026.6 - 0.0 - Cloudy 10 - - - -
27/10:30am - S 8 15 1026.6 - 0.0 - Cloudy 10 - - - -
27/10:00am - S 10 14 1026.7 - 0.0 - Partly cloudy 10 - - - -
27/09:30am - SW 9 13 1026.7 - 0.0 - Partly cloudy 10 - - - -
27/09:00am - SW 11 14 1026.7 - 0.2 - Cloudy 10 - - - -
27/08:30am - S 7 10 1026.4 - 0.2 - Cloudy 10 - - - -
27/08:00am - S 7 9 1026.1 - 0.2 - Cloudy 10 - - - -
27/07:30am - S 5 7 1025.7 - 0.2 - Cloudy 10 - - - -
27/07:00am - SSW 1 5 1025.4 - 0.2 - Partly cloudy 9 - - - -
27/06:30am - SW 2 3 1025.2 - 0.2 - Partly cloudy 10 - - - -
27/06:00am - ENE 1 4 1025.1 - 0.2 - Cloudy 10 - - - -
27/05:30am - S 1 3 1024.8 - 0.2 - Cloudy 10 - - - -
27/05:00am - SSW 4 5 1024.6 - 0.2 - Partly cloudy 10 - - - -
27/04:30am - S 5 5 1024.5 - 0.2 - Partly cloudy 10 - - - -
27/04:00am - WSW 4 5 1024.2 - 0.2 - Partly cloudy 10 - - - -
27/03:30am - SSW 5 6 1024.1 - 0.2 - Cloudy 10 - - - -
27/03:00am - SSW 7 10 1024.0 - 0.2 - Cloudy 10 - - - -
27/02:30am - S 8 10 1024.1 - 0.2 - Partly cloudy 10 - - - -
27/02:00am - S 7 9 1023.9 - 0.2 - Cloudy 10 - - - -
27/01:30am - S 8 11 1024.0 - 0.2 - Partly cloudy 10 - - - -
27/01:00am - SSW 7 9 1023.9 - 0.2 - Cloudy 10 - - - -
27/12:30am - SSW 7 10 1024.1 - 0.2 - Cloudy 10 - - - -
27/12:00am - SSW 6 8 1024.1 - 0.2 - Mostly cloudy 10 - - - -
 
Date/Time
EDT
Temp

°C
Wind Pressure Rain
since 9am
mm
Weather Cloud Vis
km
Sea
Height
m
Swell
Dir
 
Speed
knots
Gust
knots
hPa Trend Height
m
Period
s
Dir
26/11:30pm - SSW 7 9 1024.0 - 0.2 - Cloudy 10 - - - -
26/11:00pm - S 8 10 1024.1 - 0.2 - Partly cloudy 10 - - - -
26/10:30pm - SSW 7 9 1023.9 - 0.2 - Cloudy 10 - - - -
26/10:00pm - SSW 6 10 1023.8 - 0.2 - Partly cloudy 10 - - - -
26/09:30pm - SSW 7 11 1023.5 - 0.2 - Cloudy 10 - - - -
26/09:00pm - SW 9 11 1023.2 - 0.2 - Cloudy 10 - - - -
26/08:30pm - SSW 8 11 1023.0 - 0.2 - Partly cloudy 10 - - - -
26/08:00pm - SW 9 11 1022.8 - 0.2 - Cloudy 10 - - - -
26/07:30pm - SSW 8 11 1022.4 - 0.2 - Cloudy 10 - - - -
26/07:00pm - SSW 13 17 1022.2 - 0.2 - Cloudy 10 - - - -
26/06:30pm - SSW 12 17 1021.7 - 0.2 - Partly cloudy 10 - - - -
26/06:00pm - SSW 14 17 1021.5 - 0.2 - Partly cloudy 10 - - - -
26/05:30pm - SW 14 19 1021.1 - 0.2 - Cloudy 10 - - - -
26/05:00pm - WSW 14 19 1021.1 - 0.2 - Partly cloudy 10 - - - -
26/04:30pm - WSW 15 19 1020.8 - 0.2 - - 10 - - - -
26/04:00pm - WSW 13 17 1020.7 - 0.2 - Partly cloudy 10 - - - -
26/03:30pm - SW 14 18 1020.7 - 0.2 - Partly cloudy 10 - - - -
26/03:00pm - WSW 14 19 1020.5 - 0.2 - Cloudy 10 - - - -
26/02:30pm - WSW 12 17 1020.4 - 0.2 - Partly cloudy 10 - - - -
26/02:00pm - WSW 15 20 1020.2 - 0.2 - Partly cloudy 10 - - - -
26/01:30pm - WSW 14 20 1019.9 - 0.2 - Partly cloudy 10 - - - -
26/01:00pm - WSW 16 22 1019.9 - 0.2 - Partly cloudy 10 - - - -
26/12:30pm - SW 15 22 1019.5 - 0.2 - Cloudy 10 - - - -
26/12:00pm - WSW 14 21 1019.2 - 0.0 - Cloudy 10 - - - -
26/11:30am - WSW 17 24 1019.0 - 0.0 - Partly cloudy 10 - - - -
26/11:00am - WSW 15 19 1018.7 - 0.0 - Partly cloudy 10 - - - -
26/10:30am - SW 15 20 1018.6 - 0.0 - Partly cloudy 10 - - - -
26/10:00am - WSW 11 14 1018.4 - 0.0 - Partly cloudy 10 - - - -
26/09:30am - SW 14 20 1018.4 - 0.0 - Partly cloudy 9 - - - -
26/09:00am - W 13 15 1017.7 - 5.0 - Cloudy 10 - - - -
26/08:30am - WSW 13 17 1017.3 - 5.0 - Cloudy 10 - - - -
26/08:00am - SW 11 17 1017.0 - 5.0 - Partly cloudy 10 - - - -
26/07:30am - SW 10 16 1016.8 - 5.0 - Partly cloudy 10 - - - -
26/07:00am - W 14 20 1016.3 - 5.0 - Partly cloudy 10 - - - -
26/06:30am - W 12 16 1016.0 - 5.0 - Partly cloudy 9 - - - -
26/06:00am - WSW 10 14 1015.5 - 4.8 - Cloudy 10 - - - -
26/05:30am - WSW 8 11 1015.1 - 4.8 - Partly cloudy 10 - - - -
26/05:00am - W 9 12 1014.7 - 4.8 - Partly cloudy 10 - - - -
26/04:30am - SW 6 9 1014.3 - 4.8 - Partly cloudy 9 - - - -
26/04:00am - W 12 17 1014.1 - 4.8 - Partly cloudy 10 - - - -
26/03:30am - W 13 18 1013.9 - 4.8 - Partly cloudy 10 - - - -
26/03:07am - W 12 19 1013.7 - 4.8 - Partly cloudy 10 - - - -
26/03:00am - WSW 13 19 1013.7 - 4.8 Recent precip. Cloudy 7 - - - -
26/02:48am - WSW 13 19 1013.8 - 4.8 - Partly cloudy 5 - - - -
26/02:44am - WSW 15 21 1013.8 - 4.6 - Partly cloudy 8 - - - -
26/02:41am - WSW 15 22 1013.8 - 4.6 - Partly cloudy 10 - - - -
26/02:30am - SW 16 21 1013.6 - 4.6 - Partly cloudy 5 - - - -
26/02:21am - WSW 17 22 1013.6 - 4.4 - Partly cloudy 4 - - - -
26/02:13am - WNW 20 30 1013.4 - 3.6 - Partly cloudy 5 - - - -
26/02:12am - WNW 21 30 1013.4 - 3.6 - Partly cloudy 5 - - - -
26/02:00am - WNW 19 24 1013.4 - 3.4 - Partly cloudy 10 - - - -
26/01:30am - NW 18 27 1013.5 - 3.4 - Partly cloudy 10 - - - -
26/01:00am - NW 18 25 1013.8 - 3.4 - Partly cloudy 10 - - - -
26/12:52am - NW 17 24 1013.9 - 3.4 - Partly cloudy 10 - - - -
26/12:35am - WNW 19 27 1013.9 - 3.4 - Partly cloudy 5 - - - -
26/12:30am - WNW 18 26 1013.9 - 3.2 - Partly cloudy 10 - - - -
26/12:10am - WNW 19 26 1014.2 - 3.2 - Partly cloudy 9 - - - -
26/12:00am - WNW 17 23 1014.3 - 3.2 Recent precip. Cloudy 9 - - - -
 
Date/Time
EDT
Temp

°C
Wind Pressure Rain
since 9am
mm
Weather Cloud Vis
km
Sea
Height
m
Swell
Dir
 
Speed
knots
Gust
knots
hPa Trend Height
m
Period
s
Dir
25/11:54pm - WNW 17 24 1014.4 - 3.2 - Partly cloudy 6 - - - -
25/11:30pm - WNW 17 24 1014.5 - 2.6 - Partly cloudy 5 - - - -
25/11:29pm - WNW 17 24 1014.5 - 2.6 - Partly cloudy 5 - - - -
25/11:28pm - WNW 17 24 1014.5 - 2.6 - Partly cloudy 5 - - - -
25/11:10pm - NW 18 27 1014.6 - 2.6 - Partly cloudy 9 - - - -
25/11:00pm - WNW 20 27 1014.7 - 2.6 - Partly cloudy 5 - - - -
25/10:58pm - WNW 21 27 1014.7 - 2.6 - Partly cloudy 5 - - - -
25/10:31pm - NW 18 24 1014.9 - 2.0 - Partly cloudy 5 - - - -
25/10:30pm - NW 18 24 1014.9 - 2.0 - Partly cloudy 6 - - - -
25/10:00pm - WNW 17 25 1015.0 - 2.0 - Partly cloudy 7 - - - -
25/09:50pm - WNW 16 26 1015.0 - 2.0 - Partly cloudy 10 - - - -
25/09:30pm - WNW 16 25 1015.0 - 2.0 - Partly cloudy 10 - - - -
25/09:06pm - WNW 16 26 1014.9 - 2.0 - Partly cloudy 10 - - - -
25/09:00pm - WNW 15 23 1014.9 - 2.0 Recent precip. Cloudy 10 - - - -
25/08:30pm - WNW 15 19 1014.8 - 2.0 - Partly cloudy 10 - - - -
25/08:19pm - WNW 15 25 1014.8 - 2.0 - Partly cloudy 9 - - - -
25/08:00pm - WNW 16 20 1014.8 - 1.8 - Partly cloudy 10 - - - -
25/07:30pm - WNW 13 20 1014.7 - 1.8 - Partly cloudy 10 - - - -
25/07:00pm - WNW 14 19 1014.6 - 1.8 - Partly cloudy 10 - - - -
25/06:30pm - W 13 19 1014.5 - 1.8 - Partly cloudy 10 - - - -
25/06:00pm - WNW 10 15 1014.3 - 1.8 Recent precip. Cloudy 10 - - - -
25/05:46pm - NW 9 12 1014.3 - 1.8 - Partly cloudy 10 - - - -
25/05:30pm - W 16 23 1014.6 - 1.8 - Partly cloudy 3 - - - -
25/05:13pm - W 15 22 1014.5 - 1.4 - Partly cloudy 5 - - - -
25/05:00pm - WSW 14 17 1014.3 - 1.2 - Partly cloudy 10 - - - -
25/04:30pm - W 17 22 1014.0 - 1.0 - Partly cloudy 10 - - - -
25/04:00pm - W 17 22 1013.9 - 1.0 - Partly cloudy 10 - - - -
25/03:30pm - W 17 22 1013.7 - 1.0 - Partly cloudy 10 - - - -
25/03:00pm - W 17 25 1013.6 - 1.0 - Mostly cloudy 10 - - - -
25/02:30pm - W 16 21 1013.6 - 1.0 - Partly cloudy 10 - - - -
25/02:00pm - W 18 25 1013.3 - 1.0 - Partly cloudy 10 - - - -
25/01:30pm - W 16 23 1012.9 - 1.0 - Partly cloudy 10 - - - -
25/01:07pm - W 14 18 1012.7 - 1.0 - Partly cloudy 10 - - - -
25/01:00pm - W 14 21 1012.7 - 1.0 - Partly cloudy 10 - - - -
25/12:53pm - W 19 29 1012.7 - 1.0 - Partly cloudy 2 - - - -

Other Formats:

Comma delimited format used in spreadsheet applications
http://www.bom.gov.au/fwo/IDT60701/IDT60701.94956.axf

JavaScript Object Notation format (JSON) in row-major order
http://www.bom.gov.au/fwo/IDT60701/IDT60701.94956.json